Latest Weather Observations for Eildon Fire Tower

IDV60801

Issued at 8:31 pm EST Thursday 3 September 2015 (issued every 30 minutes, with the page automatically refreshed every 10 minutes)

About weather observations | Map of weather stations | Latest weather observations for VIC | Other Formats
Station Details ID: 088164 Name: EILDON FIRE TOWER Lat: -37.21 Lon: 145.84 Height: 637.0 m
Data from the previous 72 hours. | See also: Recent months at Eildon Fire Tower
Date/Time
EST
Temp
°C
App
Temp
°C
Dew
Point
Rel
Hum
%
Delta-T
°C
Wind Press
QNH
hPa
Press
MSL
hPa
Rain
since 9 am
mm
Dir
 
Spd
km/h
Gust
km/h
Spd
kts
Gust
kts
03/08:30pm 6.0 -1.0 4.2 88 0.8 WSW 30 39 16 21 - - 0.0
03/08:00pm 6.3 0.5 4.6 89 0.8 WSW 24 32 13 17 - - 0.0
03/07:30pm 6.9 0.7 4.4 84 1.1 SW 26 33 14 18 - - 0.0
03/07:00pm 7.4 1.2 4.5 82 1.3 WSW 26 37 14 20 - - 0.0
03/06:30pm 8.0 0.9 5.3 83 1.3 SW 32 44 17 24 - - 0.0
03/06:00pm 8.8 2.9 5.9 82 1.4 SW 26 39 14 21 - - 0.0
03/05:30pm 9.8 4.8 6.5 80 1.6 WSW 22 33 12 18 - - 0.0
03/05:00pm 11.1 7.1 6.5 73 2.2 SW 17 28 9 15 - - 0.0
03/04:30pm 11.5 7.1 4.5 62 3.3 SSW 17 28 9 15 - - 0.0
03/04:00pm 12.6 8.1 6.2 65 3.1 SSW 19 32 10 17 - - 0.0
03/03:30pm 12.5 7.0 6.1 65 3.1 WSW 24 35 13 19 - - 0.0
03/03:00pm 12.8 7.5 4.8 58 3.8 SW 22 37 12 20 - - 0.0
03/02:30pm 12.9 7.4 5.8 62 3.5 WSW 24 33 13 18 - - 0.0
03/02:00pm 12.2 5.3 4.7 60 3.6 SW 30 46 16 25 - - 0.0
03/01:54pm 12.8 6.3 4.8 58 3.8 SW 28 46 15 25 - - 0.0
03/01:30pm 13.1 8.3 5.5 60 3.7 SW 20 30 11 16 - - 0.0
03/01:00pm 12.9 7.0 5.6 61 3.5 SSW 26 37 14 20 - - 0.0
03/12:30pm 12.4 6.8 3.4 54 4.2 S 22 32 12 17 - - 0.0
03/12:00pm 13.6 8.6 4.5 54 4.3 S 20 35 11 19 - - 0.0
03/11:30am 13.7 8.7 4.6 54 4.4 SSE 20 44 11 24 - - 0.0
03/11:26am 13.4 8.4 4.6 55 4.2 SSE 20 44 11 24 - - 0.0
03/11:23am 13.3 8.1 2.2 47 5.0 SSE 19 44 10 24 - - 0.0
03/11:00am 13.2 9.8 4.1 54 4.3 S 11 26 6 14 - - 0.0
03/10:30am 12.4 9.8 4.4 58 3.8 SW 7 15 4 8 - - 0.0
03/10:00am 11.3 8.8 4.5 63 3.2 SW 7 15 4 8 - - 0.0
03/09:30am 11.0 8.0 4.0 62 3.2 S 9 17 5 9 - - 0.0
03/09:00am 10.2 6.7 3.3 62 3.1 SSE 11 24 6 13 - - 5.8
03/08:30am 9.8 5.8 3.1 63 3.0 S 13 22 7 12 - - 5.8
03/08:00am 7.9 3.9 3.0 71 2.2 SSW 13 24 7 13 - - 5.8
03/07:30am 6.9 3.1 4.0 82 1.3 SW 13 19 7 10 - - 5.8
03/07:00am 7.3 2.9 2.6 72 2.0 SSW 15 20 8 11 - - 5.8
03/06:30am 7.3 3.0 3.4 76 1.7 SW 15 19 8 10 - - 5.8
03/06:00am 6.8 2.5 5.4 91 0.6 SW 17 24 9 13 - - 5.6
03/05:30am 6.4 1.9 6.0 97 0.2 SW 19 20 10 11 - - 5.6
03/05:00am 6.6 2.5 6.0 96 0.3 WSW 17 22 9 12 - - 5.6
03/04:30am 7.1 3.0 6.4 95 0.3 WSW 17 19 9 10 - - 5.6
03/04:00am 7.1 3.7 6.0 93 0.5 SW 13 15 7 8 - - 5.6
03/03:30am 7.5 4.0 5.5 87 0.9 SSW 13 17 7 9 - - 5.2
03/03:00am 7.6 4.9 5.6 87 0.9 SSW 9 13 5 7 - - 5.2
03/02:30am 7.6 5.2 5.2 85 1.1 SE 7 11 4 6 - - 5.2
03/02:00am 7.8 4.6 5.1 83 1.2 ESE 11 15 6 8 - - 5.2
03/01:30am 8.0 3.1 5.1 82 1.3 ESE 20 30 11 16 - - 5.2
03/01:00am 7.9 2.0 6.0 88 0.9 E 26 30 14 16 - - 5.2
03/12:30am 7.6 2.9 6.2 91 0.7 ENE 20 26 11 14 - - 5.2
03/12:00am 7.8 2.3 6.1 89 0.8 ENE 24 30 13 16 - - 5.0
 
Date/Time
EST
Temp
°C
App
Temp
°C
Dew
Point
Rel
Hum
%
Delta-T
°C
Wind Press
QNH
hPa
Press
MSL
hPa
Rain
since 9 am
mm
Dir
 
Spd
km/h
Gust
km/h
Spd
kts
Gust
kts
02/11:30pm 7.3 2.0 6.7 96 0.3 E 24 32 13 17 - - 5.0
02/11:00pm 7.4 2.1 7.0 97 0.2 E 24 33 13 18 - - 5.0
02/10:30pm 7.4 2.5 7.0 97 0.2 ENE 22 28 12 15 - - 5.0
02/10:00pm 7.4 3.8 6.8 96 0.3 ENE 15 17 8 9 - - 4.2
02/09:30pm 7.5 3.5 6.8 95 0.3 NE 17 20 9 11 - - 3.0
02/09:00pm 7.9 3.9 6.7 92 0.6 NE 17 20 9 11 - - 2.4
02/08:30pm 8.2 5.3 6.3 88 0.9 NE 11 17 6 9 - - 1.8
02/08:00pm 8.9 5.5 5.8 81 1.5 N 13 17 7 9 - - 0.6
02/07:30pm 9.7 6.9 5.1 73 2.2 NNE 9 13 5 7 - - 0.2
02/07:00pm 10.4 6.6 4.1 65 2.9 ENE 13 17 7 9 - - 0.0
02/06:30pm 10.5 7.4 3.5 62 3.2 NE 9 13 5 7 - - 0.0
02/06:00pm 11.0 4.5 2.8 57 3.7 ENE 26 33 14 18 - - 0.0
02/05:30pm 10.5 5.6 4.2 65 2.9 NE 19 39 10 21 - - 0.0
02/05:00pm 11.2 7.9 4.4 63 3.2 NE 11 15 6 8 - - 0.0
02/04:30pm 11.3 7.7 5.0 65 3.0 NE 13 15 7 8 - - 0.0
02/04:00pm 11.6 7.6 4.8 63 3.2 NE 15 20 8 11 - - 0.0
02/03:30pm 11.8 7.0 4.5 61 3.4 NE 19 24 10 13 - - 0.0
02/03:00pm 12.1 8.0 4.6 60 3.5 NE 15 24 8 13 - - 0.0
02/02:30pm 12.9 8.5 4.6 57 3.9 NE 17 26 9 14 - - 0.0
02/02:00pm 13.7 9.9 5.8 59 3.9 NE 15 28 8 15 - - 0.0
02/01:30pm 13.2 8.4 5.6 60 3.7 NE 20 26 11 14 - - 0.0
02/01:00pm 12.7 7.5 5.6 62 3.4 NE 22 32 12 17 - - 0.0
02/12:30pm 12.1 6.6 5.7 65 3.1 NE 24 37 13 20 - - 0.0
02/12:00pm 11.6 6.1 6.1 69 2.7 NE 24 41 13 22 - - 0.0
02/11:30am 10.4 5.7 6.0 74 2.1 NE 20 30 11 16 - - 0.0
02/11:00am 9.0 4.2 4.8 75 1.9 NE 19 32 10 17 - - 0.0
02/10:30am 9.7 4.8 5.3 74 2.1 NE 20 32 11 17 - - 0.0
02/10:00am 9.0 4.0 4.6 74 2.0 NE 20 28 11 15 - - 0.0
02/09:30am 8.4 3.8 3.8 73 2.1 NE 17 22 9 12 - - 0.0
02/09:00am 6.6 2.1 4.1 84 1.1 NE 17 20 9 11 - - 0.0
02/08:30am 5.0 -1.1 3.0 87 0.9 NE 24 32 13 17 - - 0.0
02/08:00am 4.0 -2.1 2.7 91 0.5 NE 24 28 13 15 - - 0.0
02/07:30am 4.1 -2.7 3.1 93 0.4 ENE 28 30 15 16 - - 0.0
02/07:00am 4.7 -1.8 2.6 86 0.9 ENE 26 30 14 16 - - 0.0
02/06:30am 4.3 -1.9 2.2 86 0.9 ENE 24 26 13 14 - - 0.0
02/06:00am 5.0 -0.8 2.2 82 1.2 ENE 22 24 12 13 - - 0.0
02/05:30am 4.8 -0.6 2.3 84 1.0 ENE 20 22 11 12 - - 0.0
02/05:00am 4.3 -0.9 2.5 88 0.8 ENE 19 19 10 10 - - 0.0
02/04:30am 4.4 -0.8 2.6 88 0.8 ENE 19 20 10 11 - - 0.0
02/04:00am 4.0 -0.8 2.8 92 0.5 ENE 17 19 9 10 - - 0.0
02/03:30am 4.3 -0.8 3.0 91 0.6 NE 19 20 10 11 - - 0.0
02/03:00am 4.5 -0.6 3.0 90 0.6 NE 19 24 10 13 - - 0.0
02/02:30am 4.5 -0.6 2.8 89 0.7 NE 19 20 10 11 - - 0.0
02/02:00am 4.5 0.5 2.8 89 0.7 NE 13 17 7 9 - - 0.0
02/01:30am 5.0 -0.1 3.0 87 0.9 NE 19 20 10 11 - - 0.0
02/01:00am 5.0 0.3 3.2 88 0.8 NE 17 20 9 11 - - 0.0
02/12:30am 4.5 0.2 3.3 92 0.5 NNE 15 19 8 10 - - 0.0
02/12:00am 4.7 0.0 3.4 91 0.6 NE 17 19 9 10 - - 0.0
 
Date/Time
EST
Temp
°C
App
Temp
°C
Dew
Point
Rel
Hum
%
Delta-T
°C
Wind Press
QNH
hPa
Press
MSL
hPa
Rain
since 9 am
mm
Dir
 
Spd
km/h
Gust
km/h
Spd
kts
Gust
kts
01/11:30pm 5.1 0.8 3.4 89 0.7 ENE 15 19 8 10 - - 0.0
01/11:00pm 5.2 0.9 3.2 87 0.9 NE 15 17 8 9 - - 0.0
01/10:30pm 5.4 1.5 3.3 86 0.9 NE 13 17 7 9 - - 0.0
01/10:00pm 5.5 1.9 3.2 85 1.0 NNE 11 15 6 8 - - 0.0
01/09:30pm 5.8 1.1 3.1 83 1.2 NE 17 20 9 11 - - 0.0
01/09:00pm 6.0 2.4 2.8 80 1.4 NNE 11 15 6 8 - - 0.0
01/08:30pm 6.4 2.8 2.9 78 1.5 NNE 11 15 6 8 - - 0.0
01/08:00pm 6.8 2.1 3.1 77 1.6 N 17 19 9 10 - - 0.0
01/07:30pm 7.2 3.6 2.9 74 1.9 N 11 15 6 8 - - 0.0
01/07:00pm 6.9 3.7 2.8 75 1.8 NW 9 13 5 7 - - 0.0
01/06:30pm 7.2 3.9 2.5 72 2.0 NW 9 15 5 8 - - 0.0
01/06:00pm 7.9 4.3 3.0 71 2.2 W 11 13 6 7 - - 0.0
01/05:30pm 8.3 4.4 3.6 72 2.1 W 13 17 7 9 - - 0.0
01/05:00pm 9.1 5.6 3.5 68 2.5 W 11 15 6 8 - - 0.0
01/04:30pm 10.7 8.5 5.3 69 2.6 W 6 7 3 4 - - 0.0
01/04:00pm 10.6 8.4 6.0 73 2.2 W 7 11 4 6 - - 0.0
01/03:30pm 10.9 8.8 6.8 76 2.0 WNW 7 11 4 6 - - 0.0
01/03:00pm 10.5 8.0 4.9 68 2.6 NE 7 11 4 6 - - 0.0
01/02:30pm 9.9 8.1 5.5 74 2.1 SSW 4 6 2 3 - - 0.0
01/02:00pm 9.0 7.5 5.0 76 1.9 W 2 6 1 3 - - 0.0
01/01:30pm 8.0 5.9 6.0 87 0.9 SSW 6 7 3 4 - - 0.0
01/01:00pm 9.5 7.8 7.4 87 1.0 S 6 7 3 4 - - 0.0
01/12:30pm 7.2 4.9 4.9 85 1.1 SSW 6 9 3 5 - - 0.0
01/12:00pm 7.9 5.6 5.5 85 1.1 W 7 11 4 6 - - 0.0
01/11:30am 7.1 4.6 4.9 86 1.0 WSW 7 9 4 5 - - 0.0
01/11:00am 7.5 5.5 4.5 81 1.4 WNW 4 6 2 3 - - 0.0
01/10:30am 7.1 5.4 6.0 93 0.5 NW 4 6 2 3 - - 0.0
01/10:00am 6.7 5.5 6.4 98 0.1 NNE 2 4 1 2 - - 0.0
01/09:30am 4.5 2.8 4.2 98 0.1 NE 2 4 1 2 - - 0.0
01/09:00am 2.8 0.1 2.5 98 0.1 ENE 6 9 3 5 - - 0.2
01/08:30am 4.1 2.4 3.8 98 0.1 E 2 6 1 3 - - 0.2
01/08:00am 2.3 -0.7 2.0 98 0.1 NE 7 9 4 5 - - 0.2
01/07:30am 1.5 -2.0 1.2 98 0.1 NE 9 11 5 6 - - 0.2
01/07:00am 1.2 -2.4 0.9 98 0.1 NE 9 11 5 6 - - 0.2
01/06:30am 0.9 -2.7 0.5 97 0.2 ENE 9 13 5 7 - - 0.2
01/06:00am 1.9 -1.6 1.3 96 0.2 E 9 11 5 6 - - 0.2
01/05:30am 2.0 -1.8 1.6 97 0.2 ESE 11 13 6 7 - - 0.2
01/05:00am 1.9 -2.4 1.3 96 0.2 E 13 15 7 8 - - 0.2
01/04:30am 2.4 -1.1 1.5 94 0.4 E 9 9 5 5 - - 0.2
01/04:00am 3.0 0.0 2.1 94 0.4 E 7 9 4 5 - - 0.2
01/03:30am 2.9 -0.1 1.9 93 0.4 E 7 9 4 5 - - 0.2
01/03:00am 3.1 0.7 2.1 93 0.4 WSW 4 6 2 3 - - 0.2
01/02:30am 3.2 1.6 2.5 95 0.3 CALM 0 4 0 2 - - 0.2
01/02:00am 2.8 0.8 2.1 95 0.3 WSW 2 4 1 2 - - 0.2
01/01:30am 2.8 0.4 1.9 94 0.4 WSW 4 6 2 3 - - 0.2
01/01:00am 4.0 1.3 2.7 91 0.5 SSW 6 7 3 4 - - 0.2
01/12:30am 3.9 1.1 2.3 89 0.7 SE 6 6 3 3 - - 0.2
01/12:00am 3.9 1.1 2.3 89 0.7 SSE 6 11 3 6 - - 0.2
 
Date/Time
EST
Temp
°C
App
Temp
°C
Dew
Point
Rel
Hum
%
Delta-T
°C
Wind Press
QNH
hPa
Press
MSL
hPa
Rain
since 9 am
mm
Dir
 
Spd
km/h
Gust
km/h
Spd
kts
Gust
kts
31/11:30pm 4.3 1.4 2.7 89 0.7 SE 7 11 4 6 - - 0.2
31/11:00pm 3.6 0.6 1.8 88 0.7 S 7 11 4 6 - - 0.2
31/10:30pm 4.3 0.6 2.2 86 0.9 SE 11 15 6 8 - - 0.2
31/10:00pm 4.4 1.5 2.4 87 0.8 SSE 7 11 4 6 - - 0.2
31/09:30pm 4.4 1.7 2.4 87 0.8 S 6 7 3 4 - - 0.2
31/09:00pm 4.5 1.8 2.4 86 0.9 S 6 7 3 4 - - 0.2

Other Formats:

Comma delimited format used in spreadsheet applications
http://www.bom.gov.au/fwo/IDV60801/IDV60801.94881.axf

JavaScript Object Notation format (JSON) in row-major order
http://www.bom.gov.au/fwo/IDV60801/IDV60801.94881.json